Terminal Aerodrome Forecast
Issued by NWS

Home | Current Version | Previous Version | Text Only | Print | Product List | Glossary On
Versions: 1 2 3 4 5 6 7 8 9 10 11 12 13
000
FTUS45 KLKN 021720
TAFTPH
TAF
KTPH 021720Z 0218/0318 35022G32KT P6SM SCT250
     FM030200 35017G27KT P6SM SCT250
     FM030700 35012KT P6SM SCT030 SCT080 BKN200=

USA.gov is the U.S. government's official web portal to all federal, state and local government web resources and services.